Trenton, NE (69044)

7:05 PM CDT on March 30, 2017 (GMT -0500)
3 W 1N of Trenton, NE | | Change Station

Elev 2844 ft 40.19 °N, 101.07 °W | Updated 6 seconds ago

Clear
Clear
54.7 °F
Feels Like 54.7 °F
N
5.8
Wind Variable Wind from East
Gusts 7.4 mph

Today
High -- | Low -- °F
--% Chance of Precip.
Yesterday
High -- | Low -- °F
Precip. -- in
Pressure 29.75 in
Visibility 10.0 miles
Clouds Clear
Dew Point 12 °F
Humidity 18%
Rainfall 0.00 in
Snow Depth Not available.
7:30 AM 8:06 PM
Waxing Crescent, 11% visible
METAR KMCK 302353Z AUTO 09011KT 10SM CLR 09/04 A2973 RMK AO2 SLP073 T00940039 10117 20061 58002
Pressure 29.75 in
Visibility 10.0 miles
Clouds Clear
Dew Point 12 °F
Humidity 18%
Rainfall 0.00 in
Snow Depth Not available.
7:30 AM 8:06 PM
Waxing Crescent, 11% visible
METAR KMCK 302353Z AUTO 09011KT 10SM CLR 09/04 A2973 RMK AO2 SLP073 T00940039 10117 20061 58002

Get Severe Weather Alerts

Thanks for signing up!

Be on the lookout for a verification email in your inbox.

You'll start receiving the daily forecast at 8 AM.

×

10-Day Weather Forecast

Almanac

Astronomy

Mar. 30, 2017 Rise Set
Actual Time
Civil Twilight
Nautical Twilight
Astronomical Twilight
Moon
Length of Visible Light
Length of Day
Tomorrow will be .
, % of the Moon is Illuminated

Today's Extremes

State Highs State Lows

Community

WunderPhotos

Upload Photos

1,962,540 photos uploaded!

WunderBlog® & News

Nearby

Air Quality

  Air Quality AQ Index Pollutant
Not available.

Snow Depth

Station Depth Elevation

Earthquake Activity

City Distance Mag. Time & Date
Minimum magnitude displayed is 2.5.

Earthquake Activity

City Distance Mag. Time & Date
Minimum magnitude displayed is 2.5.

Coastal Water Temperatures

Place Temperature

Stations

Nearby Weather Stations

Station Location Temp. Windchill Dew Point Humidity Wind Precip. Elev Updated Type
                   

Watches & Warnings

There are currently no watches in effect.